Time;durP1;ratioP1;P1;durP2;ratioP2;P2;SDS_P1;SDS_P2;PMS_P1;PMS_P2;Temp;Humidity;BMP_temperature;BMP_pressure;BME280_temperature;BME280_humidity;BME280_pressure;Samples;Min_cycle;Max_cycle;Signal;HPM_P1;HPM_P2
2023/01/27 00:00:27;;;;;;;;;;;;;;;;;;5090814;28;19924;-70
2023/01/27 00:02:53;;;;;;;;;;;;;;;;;;5090721;28;20056;-71
2023/01/27 00:05:19;;;;;;;;;;;;;;;;;;5091949;28;19927;-71
2023/01/27 00:07:45;;;;;;;;;;;;;;;;;;5092078;28;20272;-71
2023/01/27 00:10:11;;;;;;;;;;;;;;;;;;5093896;28;19961;-71
2023/01/27 00:15:22;;;;;;;;;;;;;;;;;;5095698;28;19916;-71
2023/01/27 00:17:47;;;;;;;;;;;;;;;;;;5078220;28;19916;-71
2023/01/27 00:24:34;;;;;;;;;;;;;;;;;;5096108;28;19916;-70
2023/01/27 00:25:49;;;;;;;;;;;;;;;;;;5095412;28;20011;-70
2023/01/27 00:28:21;;;;;;;;;;;;;;;;;;5094968;28;20205;-70
2023/01/27 00:30:47;;;;;;;;;;;;;;;;;;5096009;28;19916;-70
2023/01/27 00:33:25;;;;;;;;;;;;;;;;;;5095861;28;19916;-70
2023/01/27 00:35:51;;;;;;;;;;;;;;;;;;5094145;28;19965;-70
2023/01/27 00:38:17;;;;;;;;;;;;;;;;;;5094365;28;20409;-70
2023/01/27 00:41:14;;;;;;;;;;;;;;;;;;5095808;28;19923;-70
2023/01/27 00:43:29;;;;;;;;;;;;;;;;;;5094393;28;20380;-71
2023/01/27 00:45:55;;;;;;;;;;;;;;;;;;5094069;28;19977;-70
2023/01/27 00:48:21;;;;;;;;;;;;;;;;;;5076698;28;19965;-71
2023/01/27 00:50:47;;;;;;;;;;;;;;;;;;5094200;28;20354;-71
2023/01/27 00:53:13;;;;;;;;;;;;;;;;;;5094402;28;19916;-70
2023/01/27 00:55:38;;;;;;;;;;;;;;;;;;5076866;28;20007;-70
2023/01/27 00:58:04;;;;;;;;;;;;;;;;;;5094130;28;19916;-70
2023/01/27 01:00:30;;;;;;;;;;;;;;;;;;5094205;28;19916;-71
2023/01/27 01:02:56;;;;;;;;;;;;;;;;;;5076859;28;20369;-71
2023/01/27 01:05:22;;;;;;;;;;;;;;;;;;5093672;28;19920;-70
2023/01/27 01:07:48;;;;;;;;;;;;;;;;;;5095219;28;19959;-71
2023/01/27 01:10:14;;;;;;;;;;;;;;;;;;5095266;28;19916;-72
2023/01/27 01:12:40;;;;;;;;;;;;;;;;;;5076849;28;19957;-72
2023/01/27 01:15:06;;;;;;;;;;;;;;;;;;5093716;28;19955;-70
2023/01/27 01:17:32;;;;;;;;;;;;;;;;;;5093585;28;20374;-70
2023/01/27 01:19:57;;;;;;;;;;;;;;;;;;5095245;28;19924;-71
2023/01/27 01:22:23;;;;;;;;;;;;;;;;;;5093079;28;19916;-70
2023/01/27 01:24:49;;;;;;;;;;;;;;;;;;5093568;28;20406;-71
2023/01/27 01:27:15;;;;;;;;;;;;;;;;;;5093269;28;19922;-71
2023/01/27 01:29:41;;;;;;;;;;;;;;;;;;5076706;28;19916;-72
2023/01/27 01:32:08;;;;;;;;;;;;;;;;;;5094626;28;20045;-73
2023/01/27 01:34:34;;;;;;;;;;;;;;;;;;5093577;28;20392;-70
2023/01/27 01:37:00;;;;;;;;;;;;;;;;;;5093058;28;19916;-71
2023/01/27 01:39:26;;;;;;;;;;;;;;;;;;5093465;28;19916;-71
2023/01/27 01:41:52;;;;;;;;;;;;;;;;;;5094591;28;19916;-70
2023/01/27 01:44:18;;;;;;;;;;;;;;;;;;5094270;28;19931;-74
2023/01/27 01:46:44;;;;;;;;;;;;;;;;;;5092318;28;19923;-70
2023/01/27 01:49:10;;;;;;;;;;;;;;;;;;5094691;28;19923;-70
2023/01/27 01:51:35;;;;;;;;;;;;;;;;;;5093115;28;20396;-70
2023/01/27 01:54:01;;;;;;;;;;;;;;;;;;5094421;28;19925;-70
2023/01/27 01:56:27;;;;;;;;;;;;;;;;;;5092648;28;19927;-70
2023/01/27 01:58:53;;;;;;;;;;;;;;;;;;5093051;28;19920;-71
2023/01/27 02:01:19;;;;;;;;;;;;;;;;;;5092900;28;20277;-71
2023/01/27 02:03:45;;;;;;;;;;;;;;;;;;5094334;28;19920;-73
2023/01/27 02:06:12;;;;;;;;;;;;;;;;;;5092551;28;19916;-70
2023/01/27 02:08:38;;;;;;;;;;;;;;;;;;5094159;28;19973;-71
2023/01/27 02:11:04;;;;;;;;;;;;;;;;;;5092695;28;19922;-70
2023/01/27 02:13:30;;;;;;;;;;;;;;;;;;5092405;28;19920;-71
2023/01/27 02:15:56;;;;;;;;;;;;;;;;;;5093785;28;20365;-69
2023/01/27 02:18:22;;;;;;;;;;;;;;;;;;5093876;28;19923;-72
2023/01/27 02:20:48;;;;;;;;;;;;;;;;;;5092559;28;19920;-70
2023/01/27 02:23:14;;;;;;;;;;;;;;;;;;5093819;28;19927;-70
2023/01/27 02:25:40;;;;;;;;;;;;;;;;;;5075517;28;19939;-70
2023/01/27 02:28:06;;;;;;;;;;;;;;;;;;5093942;28;19969;-70
2023/01/27 02:30:32;;;;;;;;;;;;;;;;;;5092437;28;19973;-70
2023/01/27 02:32:57;;;;;;;;;;;;;;;;;;5092985;28;19935;-71
2023/01/27 02:35:23;;;;;;;;;;;;;;;;;;5093167;28;19916;-71
2023/01/27 02:37:49;;;;;;;;;;;;;;;;;;5093619;28;19916;-73
2023/01/27 02:40:15;;;;;;;;;;;;;;;;;;5075373;28;19916;-70
2023/01/27 02:42:41;;;;;;;;;;;;;;;;;;5091977;28;20297;-70
2023/01/27 02:45:07;;;;;;;;;;;;;;;;;;5074924;28;19920;-70
2023/01/27 02:47:33;;;;;;;;;;;;;;;;;;5093073;28;19920;-71
2023/01/27 02:49:59;;;;;;;;;;;;;;;;;;5092037;28;19916;-70
2023/01/27 02:52:25;;;;;;;;;;;;;;;;;;5074855;28;19962;-70
2023/01/27 02:54:58;;;;;;;;;;;;;;;;;;5110080;27;19908;-71
2023/01/27 02:57:24;;;;;;;;;;;;;;;;;;5108517;28;19916;-71
2023/01/27 02:59:50;;;;;;;;;;;;;;;;;;5110037;28;19927;-71
2023/01/27 03:02:21;;;;;;;;;;;;;;;;;;5108587;28;19916;-71
2023/01/27 03:04:47;;;;;;;;;;;;;;;;;;5108774;28;20354;-73
2023/01/27 03:07:13;;;;;;;;;;;;;;;;;;5108614;28;20007;-74
2023/01/27 03:09:39;;;;;;;;;;;;;;;;;;5109883;28;19923;-71
2023/01/27 03:12:20;;;;;;;;;;;;;;;;;;5109834;28;19923;-71
2023/01/27 03:20:15;;;;;;;;;;;;;;;;;;5109743;28;19916;-71
2023/01/27 03:22:41;;;;;;;;;;;;;;;;;;5108184;28;20007;-71
2023/01/27 03:25:07;;;;;;;;;;;;;;;;;;5107957;28;19969;-71
2023/01/27 03:27:33;;;;;;;;;;;;;;;;;;5109338;28;19916;-71
2023/01/27 03:29:59;;;;;;;;;;;;;;;;;;5109228;28;19916;-71
2023/01/27 03:32:25;;;;;;;;;;;;;;;;;;5109464;28;19924;-72
2023/01/27 03:34:51;;;;;;;;;;;;;;;;;;5107849;28;19920;-74
2023/01/27 03:48:19;;;;;;;;;;;;;;;;;;5107207;28;19923;-74
2023/01/27 03:50:52;;;;;;;;;;;;;;;;;;5109118;28;19923;-71
2023/01/27 03:53:18;;;;;;;;;;;;;;;;;;5107700;28;19920;-71
2023/01/27 03:55:45;;;;;;;;;;;;;;;;;;5090369;28;19965;-71
2023/01/27 03:58:18;;;;;;;;;;;;;;;;;;5108024;28;20367;-71
2023/01/27 04:00:44;;;;;;;;;;;;;;;;;;5107510;28;19969;-72
2023/01/27 04:08:39;;;;;;;;;;;;;;;;;;5095102;28;19915;-74
2023/01/27 04:13:49;;;;;;;;;;;;;;;;;;5093706;28;19924;-71
2023/01/27 04:16:18;;;;;;;;;;;;;;;;;;5093189;28;20007;-74
2023/01/27 04:18:45;;;;;;;;;;;;;;;;;;5093676;28;20323;-71
2023/01/27 04:21:12;;;;;;;;;;;;;;;;;;5093411;28;19923;-71
2023/01/27 04:23:37;;;;;;;;;;;;;;;;;;5094723;28;19916;-71
2023/01/27 04:26:03;;;;;;;;;;;;;;;;;;5093205;28;19916;-72
2023/01/27 04:28:29;;;;;;;;;;;;;;;;;;5093768;28;19921;-71
2023/01/27 04:30:55;;;;;;;;;;;;;;;;;;5093577;28;20366;-71
2023/01/27 04:33:21;;;;;;;;;;;;;;;;;;5093179;28;19927;-71
2023/01/27 04:35:49;;;;;;;;;;;;;;;;;;5092938;28;19916;-70
2023/01/27 04:38:15;;;;;;;;;;;;;;;;;;5093466;28;20343;-70
2023/01/27 04:40:41;;;;;;;;;;;;;;;;;;5094612;28;19956;-70
2023/01/27 04:43:07;;;;;;;;;;;;;;;;;;5091175;22;20015;-70
2023/01/27 04:45:33;;;;;;;;;;;;;;;;;;5048857;28;20007;-72
2023/01/27 04:47:59;;;;;;;;;;;;;;;;;;5048590;28;19935;-73
2023/01/27 04:50:25;;;;;;;;;;;;;;;;;;5034033;28;19921;-73
2023/01/27 04:52:51;;;;;;;;;;;;;;;;;;5032699;28;19939;-73
2023/01/27 04:55:17;;;;;;;;;;;;;;;;;;5033870;28;19921;-73
2023/01/27 04:57:42;;;;;;;;;;;;;;;;;;5033592;28;19944;-73
2023/01/27 05:00:09;;;;;;;;;;;;;;;;;;5032629;28;19917;-73
2023/01/27 05:02:35;;;;;;;;;;;;;;;;;;5032425;28;19917;-70
2023/01/27 05:05:03;;;;;;;;;;;;;;;;;;5032713;28;19917;-70
2023/01/27 05:07:29;;;;;;;;;;;;;;;;;;5016110;28;19917;-72
2023/01/27 05:09:55;;;;;;;;;;;;;;;;;;5033060;28;19924;-70
2023/01/27 05:12:21;;;;;;;;;;;;;;;;;;5032488;28;19917;-70
2023/01/27 05:14:47;;;;;;;;;;;;;;;;;;5032484;28;19932;-71
2023/01/27 05:17:12;;;;;;;;;;;;;;;;;;5031394;28;19924;-70
2023/01/27 05:19:38;;;;;;;;;;;;;;;;;;5033903;28;20366;-70
2023/01/27 05:22:04;;;;;;;;;;;;;;;;;;5032305;28;19921;-71
2023/01/27 05:24:30;;;;;;;;;;;;;;;;;;5033606;28;19916;-70
2023/01/27 05:26:56;;;;;;;;;;;;;;;;;;5015336;28;20276;-70
2023/01/27 05:29:22;;;;;;;;;;;;;;;;;;5032262;28;20000;-70
2023/01/27 05:31:48;;;;;;;;;;;;;;;;;;5032007;28;19917;-70
2023/01/27 05:34:15;;;;;;;;;;;;;;;;;;5032027;28;20410;-70
2023/01/27 05:36:41;;;;;;;;;;;;;;;;;;5015087;28;19917;-70
2023/01/27 05:39:07;;;;;;;;;;;;;;;;;;5031867;28;19928;-70
2023/01/27 05:41:35;;;;;;;;;;;;;;;;;;5031571;28;20031;-71
2023/01/27 05:44:00;;;;;;;;;;;;;;;;;;5015018;28;20628;-70
2023/01/27 05:46:27;;;;;;;;;;;;;;;;;;5032319;28;19925;-70
2023/01/27 05:48:54;;;;;;;;;;;;;;;;;;5031867;28;19959;-73
2023/01/27 05:51:21;;;;;;;;;;;;;;;;;;5031541;28;19924;-73
2023/01/27 05:53:47;;;;;;;;;;;;;;;;;;5031393;28;19929;-73
2023/01/27 05:56:15;;;;;;;;;;;4.60;99.90;;;;;;5031683;28;19967;-74
2023/01/27 05:58:42;;;;;;;;;;;;;;;;;;5031594;28;19970;-73
2023/01/27 06:01:08;;;;;;;;;;;;;;;;;;5031566;28;19924;-73
2023/01/27 06:03:35;;;;;;;;;;;;;;;;;;5031551;28;19917;-73
2023/01/27 06:06:02;;;;;;;;;;;;;;;;;;5031564;28;19917;-73
2023/01/27 06:08:28;;;;;;;;;;;4.50;99.90;;;;;;5032233;28;19917;-73
2023/01/27 06:10:55;;;;;;;;;;;;;;;;;;5031861;28;20000;-73
2023/01/27 06:13:22;;;;;;;;;;;;;;;;;;5031141;28;19936;-73
2023/01/27 06:15:48;;;;;;;;;;;4.60;99.90;;;;;;5014623;28;19921;-71
2023/01/27 06:18:14;;;;;;;;;;;;;;;;;;5031473;28;19917;-70
2023/01/27 06:20:41;;;;;;;;;;;;;;;;;;5032458;28;19917;-71
2023/01/27 06:23:08;;;;;;;;;;;4.50;99.90;;;;;;5032314;28;19928;-71
2023/01/27 06:25:34;;;;;;;;;;;;;;;;;;5030745;28;19917;-70
2023/01/27 06:28:00;;;;;;;;;;;4.60;99.90;;;;;;5030720;28;19924;-70
2023/01/27 06:30:25;;;;;;;;;;;4.50;99.90;;;;;;5031016;28;19961;-71
2023/01/27 06:32:51;;;;;;;;;;;4.60;99.90;;;;;;5030835;28;19999;-73
2023/01/27 06:35:16;;;;;;;;;;;4.60;99.90;;;;;;5030892;28;19921;-71
2023/01/27 06:37:42;;;;;;;;;;;4.40;99.90;;;;;;5030976;28;19967;-71
2023/01/27 06:40:08;;;;;;;;;;;4.60;99.90;;;;;;5014403;28;19917;-72
2023/01/27 06:42:34;;;;;;;;;;;;;;;;;;5030560;28;19940;-72
2023/01/27 06:45:00;;;;;;;;;;;4.50;99.90;;;;;;5032417;28;20350;-71
2023/01/27 06:47:26;;;;;;;;;;;;;;;;;;5031744;28;19967;-72
2023/01/27 06:49:52;;;;;;;;;;;4.70;99.90;;;;;;5014276;28;19917;-73
2023/01/27 06:52:18;;;;;;;;;;;;;;;;;;5031014;28;19939;-72
2023/01/27 06:54:44;;;;;;;;;;;;;;;;;;5030619;28;20377;-72
2023/01/27 06:57:10;;;;;;;;;;;4.50;99.90;;;;;;5030489;28;19917;-72
2023/01/27 06:59:35;;;;;;;;;;;4.60;99.90;;;;;;5032046;28;19932;-72
2023/01/27 07:02:02;;;;;;;;;;;;;;;;;;5030740;28;19971;-72
2023/01/27 07:04:28;;;;;;;;;;;4.50;99.90;;;;;;5030624;28;19917;-72
2023/01/27 07:06:55;;;;;;;;;;;;;;;;;;5031581;28;19917;-72
2023/01/27 07:09:22;;;;;;;;;;;;;;;;;;5030575;28;19918;-72
2023/01/27 07:11:49;;;;;;;;;;;;;;;;;;5032049;28;19917;-72
2023/01/27 07:14:15;;;;;;;;;;;;;;;;;;5013973;28;19925;-72
2023/01/27 07:16:42;;;;;;;;;;;;;;;;;;5030278;28;19924;-72
2023/01/27 07:19:11;;;;;;;;;;;;;;;;;;5030198;28;19917;-72
2023/01/27 07:21:38;;;;;;;;;;;;;;;;;;5030404;28;19928;-72
2023/01/27 07:24:05;;;;;;;;;;;;;;;;;;5031913;28;19917;-72
2023/01/27 07:26:32;;;;;;;;;;;;;;;;;;5030128;28;19917;-72
2023/01/27 07:28:59;;;;;;;;;;;;;;;;;;5031834;28;19940;-72
2023/01/27 07:31:26;;;;;;;;;;;;;;;;;;5030329;28;19917;-72
2023/01/27 07:33:52;;;;;;;;;;;;;;;;;;5014016;28;20295;-72
2023/01/27 07:36:19;;;;;;;;;;;;;;;;;;5030013;28;19917;-72
2023/01/27 07:38:46;;;;;;;;;;;;;;;;;;5031861;28;19924;-72
2023/01/27 07:41:13;;;;;;;;;;;;;;;;;;5016636;28;19952;-72
2023/01/27 07:43:39;;;;;;;;;;;;;;;;;;5033954;28;19967;-72
2023/01/27 07:46:08;;;;;;;;;;;;;;;;;;5033320;28;20362;-72
2023/01/27 07:48:34;;;;;;;;;;;;;;;;;;5033843;28;19991;-72
2023/01/27 07:51:00;;;;;;;;;;;;;;;;;;5033829;28;19917;-72
2023/01/27 07:53:26;;;;;;;;;;;;;;;;;;5017578;28;20379;-72
2023/01/27 07:55:52;;;;;;;;;;;;;;;;;;5017311;28;19921;-72
2023/01/27 07:58:18;;;;;;;;;;;;;;;;;;5014027;28;19927;-71
2023/01/27 08:00:44;;;;;;;;;;;;;;;;;;5027402;28;19975;-71
2023/01/27 08:03:10;;;;;;;;;;;;;;;;;;5030733;28;20353;-71
2023/01/27 08:05:37;;;;;;;;;;;;;;;;;;5030350;28;20391;-72
2023/01/27 08:08:03;;;;;;;;;;;;;;;;;;5030384;28;19940;-72
2023/01/27 08:10:29;;;;;;;;;;;;;;;;;;5031531;28;19921;-72
2023/01/27 08:12:55;;;;;;;;;;;;;;;;;;5030969;28;20032;-71
2023/01/27 08:15:23;;;;;;;;;;;;;;;;;;5029425;28;20446;-69
2023/01/27 08:17:49;;;;;;;;;;;;;;;;;;5030582;28;19923;-70
2023/01/27 08:20:17;;;;;;;;;;;;;;;;;;5013720;28;20376;-73
2023/01/27 08:22:43;;;;;;;;;;;;;;;;;;5030502;28;19917;-72
2023/01/27 08:25:11;;;;;;;;;;;;;;;;;;5024124;28;19928;-70
2023/01/27 08:27:37;;;;;;;;;;;;;;;;;;5021041;28;19960;-70
2023/01/27 08:30:03;;;;;;;;;;;;;;;;;;5022231;28;19924;-70
2023/01/27 08:32:29;;;;;;;;;;;;;;;;;;5031658;28;19967;-71
2023/01/27 08:34:55;;;;;;;;;;;;;;;;;;5015360;28;20441;-70
2023/01/27 08:37:21;;;;;;;;;;;;;;;;;;5015768;28;19963;-70
2023/01/27 08:39:47;;;;;;;;;;;;;;;;;;5015502;28;19975;-72
2023/01/27 08:42:13;;;;;;;;;;;;;;;;;;5032122;28;19917;-73
2023/01/27 08:44:39;;;;;;;;;;;;;;;;;;5032137;28;19917;-73
2023/01/27 08:47:07;;;;;;;;;;;;;;;;;;5032932;28;19963;-73
2023/01/27 08:49:32;;;;;;;;;;;;;;;;;;5033715;28;20058;-73
2023/01/27 08:52:00;;;;;;;;;;;;;;;;;;5031013;28;20432;-73
2023/01/27 08:54:26;;;;;;;;;;;;;;;;;;5034011;28;20345;-73
2023/01/27 08:56:52;;;;;;;;;;;;;;;;;;5040970;28;19928;-72
2023/01/27 08:59:18;;;;;;;;;;;;;;;;;;5015446;28;20000;-73
2023/01/27 09:01:46;;;;;;;;;;;;;;;;;;5032168;28;20439;-73
2023/01/27 09:04:12;;;;;;;;;;;;;;;;;;5032274;28;19917;-72
2023/01/27 09:06:38;;;;;;;;;;;;;;;;;;5032715;28;20518;-73
2023/01/27 09:09:10;;;;;;;;;;;;;;;;;;5031732;28;20378;-71
2023/01/27 09:11:36;;;;;;;;;;;;;;;;;;5014684;28;20382;-70
2023/01/27 09:14:02;;;;;;;;;;;;;;;;;;5031786;28;20052;-69
2023/01/27 09:16:28;;;;;;;;;;;;;;;;;;5030814;28;20358;-72
2023/01/27 09:18:54;;;;;;;;;;;;;;;;;;5031599;28;19923;-72
2023/01/27 09:21:20;;;;;;;;;;;;;;;;;;5014882;28;19921;-72
2023/01/27 09:23:46;;;;;;;;;;;;;;;;;;5033940;28;20361;-69
2023/01/27 09:26:12;;;;;;;;;;;;;;;;;;5051471;28;19960;-69
2023/01/27 09:28:38;;;;;;;;;;;;;;;;;;5040041;28;20052;-70
2023/01/27 09:31:04;;;;;;;;;;;;;;;;;;5033359;28;19953;-69
2023/01/27 09:33:30;;;;;;;;;;;;;;;;;;5031696;28;20353;-69
2023/01/27 09:35:56;;;;;;;;;;;;;;;;;;5031410;28;19964;-69
2023/01/27 09:38:22;;;;;;;;;;;;;;;;;;5031762;28;19964;-70
2023/01/27 09:40:47;;;;;;;;;;;;;;;;;;5031235;28;20013;-69
2023/01/27 09:43:13;;;;;;;;;;;;;;;;;;5032829;28;19939;-71
2023/01/27 09:45:39;;;;;;;;;;;;;;;;;;5030505;28;19917;-70
2023/01/27 09:48:05;;;;;;;;;;;;;;;;;;5030512;28;19960;-71
2023/01/27 09:50:31;;;;;;;;;;;;;;;;;;5031063;28;20000;-71
2023/01/27 09:52:57;;;;;;;;;;;;;;;;;;5029498;28;19924;-70
2023/01/27 09:55:23;;;;;;;;;;;;;;;;;;5040605;28;20394;-71
2023/01/27 09:57:49;;;;;;;;;;;;;;;;;;5049294;28;19916;-70
2023/01/27 10:00:15;;;;;;;;;;;;;;;;;;5037513;28;20382;-71
2023/01/27 10:02:41;;;;;;;;;;;;;;;;;;5030668;28;19964;-71
2023/01/27 10:05:07;;;;;;;;;;;;;;;;;;5014343;28;19961;-71
2023/01/27 10:07:33;;;;;;;;;;;;;;;;;;5031250;28;19996;-70
2023/01/27 10:09:59;;;;;;;;;;;;;;;;;;5031827;28;19917;-70
2023/01/27 10:12:25;;;;;;;;;;;;;;;;;;5030295;28;19917;-70
2023/01/27 10:14:53;;;;;;;;;;;;;;;;;;5013846;28;20353;-70
2023/01/27 10:17:19;;;;;;;;;;;;;;;;;;5014123;28;19928;-70
2023/01/27 10:19:45;;;;;;;;;;;;;;;;;;5030871;28;20289;-70
2023/01/27 10:22:11;;;;;;;;;;;;;;;;;;5031469;28;19975;-70
2023/01/27 10:24:37;;;;;;;;;;;;;;;;;;5029853;28;20537;-72
2023/01/27 10:27:02;;;;;;;;;;;;;;;;;;5030954;28;20286;-70
2023/01/27 10:29:28;;;;;;;;;;;;;;;;;;5030597;28;19917;-71
2023/01/27 10:31:54;;;;;;;;;;;;;;;;;;5030550;28;19940;-70
2023/01/27 10:34:20;;;;;;;;;;;;;;;;;;5031072;28;19928;-70
2023/01/27 10:36:46;;;;;;;;;;;;;;;;;;5013412;28;19920;-70
2023/01/27 10:39:13;;;;;;;;;;;;;;;;;;5031004;28;20366;-70
2023/01/27 10:41:39;;;;;;;;;;;;;;;;;;5014291;28;19924;-70
2023/01/27 10:44:05;;;;;;;;;;;;;;;;;;5036504;23;19929;-72
2023/01/27 10:46:31;;;;;;;;;;;;;;;;;;5008629;28;19929;-71
2023/01/27 10:48:57;;;;;;;;;;;;;;;;;;4994612;28;20410;-72
2023/01/27 10:51:23;;;;;;;;;;;;;;;;;;4993785;28;19921;-70
2023/01/27 10:53:49;;;;;;;;;;;;;;;;;;4993856;28;19929;-69
2023/01/27 10:56:17;;;;;;;;;;;;;;;;;;4996146;28;19926;-70
2023/01/27 10:58:43;;;;;;;;;;;;;;;;;;4991481;28;19921;-72
2023/01/27 11:01:09;;;;;;;;;;;;;;;;;;4992504;28;20393;-73
2023/01/27 11:03:36;;;;;;;;;;;;;;;;;;4992334;28;19975;-72
2023/01/27 11:06:03;;;;;;;;;;;;;;;;;;4990936;28;19929;-72
2023/01/27 11:08:29;;;;;;;;;;;;;;;;;;5008985;28;19926;-72
2023/01/27 11:13:40;;;;;;;;;;;;;;;;;;5011267;28;19922;-73
2023/01/27 11:16:06;;;;;;;;;;;;;;;;;;4997206;28;20398;-72
2023/01/27 11:18:37;;;;;;;;;;;;;;;;;;5014605;28;19921;-72
2023/01/27 11:21:03;;;;;;;;;;;;;;;;;;5013543;28;19971;-72
2023/01/27 11:23:36;;;;;;;;;;;;;;;;;;4997377;28;19936;-72
2023/01/27 11:26:08;;;;;;;;;;;;;;;;;;4983055;28;20219;-72
2023/01/27 11:28:36;;;;;;;;;;;;;;;;;;5009795;28;20425;-72
2023/01/27 11:31:07;;;;;;;;;;;;;;;;;;5002220;28;19925;-72
2023/01/27 11:33:43;;;;;;;;;;;;;;;;;;4996504;28;19922;-74
2023/01/27 11:36:14;;;;;;;;;;;;;;;;;;4983469;28;20395;-72
2023/01/27 11:38:43;;;;;;;;;;;;;;;;;;4996441;28;19977;-72
2023/01/27 11:41:11;;;;;;;;;;;;;;;;;;5013696;28;19922;-72
2023/01/27 11:43:43;;;;;;;;;;;;;;;;;;5014021;28;19932;-72
2023/01/27 11:46:12;;;;;;;;;;;;;;;;;;4997996;28;19929;-72
2023/01/27 11:48:41;;;;;;;;;;;;;;;;;;4998660;28;19944;-72
2023/01/27 11:51:10;;;;;;;;;;;;;;;;;;4998655;28;19922;-72
2023/01/27 11:53:39;;;;;;;;;;;;;;;;;;4997817;28;20287;-72
2023/01/27 11:56:16;;;;;;;;;;;;;;;;;;5014944;28;19963;-73
2023/01/27 11:58:45;;;;;;;;;;;;;;;;;;5034070;28;19921;-72
2023/01/27 12:01:14;;;;;;;;;;;;;;;;;;5017674;28;19921;-72
2023/01/27 12:03:43;;;;;;;;;;;;;;;;;;5017751;28;19921;-72
2023/01/27 12:06:09;;;;;;;;;;;;;;;;;;5034882;28;20402;-72
2023/01/27 12:08:44;;;;;;;;;;;;;;;;;;5018022;28;19921;-72
2023/01/27 12:11:15;;;;;;;;;;;;;;;;;;5016767;28;20314;-73
2023/01/27 12:13:41;;;;;;;;;;;;;;;;;;5033073;28;19921;-72
2023/01/27 12:16:08;;;;;;;;;;;;;;;;;;5032647;28;19921;-72
2023/01/27 12:18:34;;;;;;;;;;;;;;;;;;5034884;28;19921;-73
2023/01/27 12:21:21;;;;;;;;;;;;;;;;;;5033787;28;19921;-73
2023/01/27 12:23:53;;;;;;;;;;;;;;;;;;5033541;28;20283;-74
2023/01/27 12:29:14;;;;;;;;;;;;;;;;;;5029370;28;20356;-74
2023/01/27 12:31:52;;;;;;;;;;;;;;;;;;5033524;28;19932;-74
2023/01/27 12:34:27;;;;;;;;;;;;;;;;;;5017387;28;20399;-74
2023/01/27 12:36:59;;;;;;;;;;;;;;;;;;5033227;28;20295;-74
2023/01/27 12:39:26;;;;;;;;;;;;;;;;;;5033256;28;19931;-74
2023/01/27 12:41:52;;;;;;;;;;;;;;;;;;5033052;28;19921;-73
2023/01/27 12:44:21;;;;;;;;;;;;;;;;;;5016665;28;19921;-73
2023/01/27 12:46:47;;;;;;;;;;;;;;;;;;5032816;28;19927;-73
2023/01/27 12:49:14;;;;;;;;;;;;;;;;;;5033169;28;19921;-73
2023/01/27 12:51:47;;;;;;;;;;;;;;;;;;5016928;28;20405;-74
2023/01/27 12:54:21;;;;;;;;;;;;;;;;;;5016056;28;19929;-73
2023/01/27 12:56:53;;;;;;;;;;;;;;;;;;5013956;28;19929;-74
2023/01/27 12:59:25;;;;;;;;;;;;;;;;;;5013747;28;19922;-73
2023/01/27 13:02:00;;;;;;;;;;;;;;;;;;5013339;28;20015;-73
2023/01/27 13:04:29;;;;;;;;;;;;;;;;;;5012800;28;19922;-73
2023/01/27 13:07:01;;;;;;;;;;;;;;;;;;5012683;28;19956;-73
2023/01/27 13:09:32;;;;;;;;;;;;;;;;;;5014294;28;19964;-74
2023/01/27 13:12:01;;;;;;;;;;;;;;;;;;5015957;28;19921;-74
2023/01/27 13:14:27;;;;;;;;;;;;;;;;;;5013322;28;19925;-73
2023/01/27 13:17:01;;;;;;;;;;;;;;;;;;5012849;28;19928;-73
2023/01/27 13:19:30;;;;;;;;;;;;;;;;;;5012579;28;19921;-73
2023/01/27 13:21:58;;;;;;;;;;;;;;;;;;5001021;28;19976;-73
2023/01/27 13:24:24;;;;;;;;;;;;;;;;;;4993424;28;19922;-73
2023/01/27 13:26:50;;;;;;;;;;;;;;;;;;5001334;28;19979;-72
2023/01/27 13:29:19;;;;;;;;;;;;;;;;;;5007213;28;19934;-73
2023/01/27 13:32:06;;;;;;;;;;;;;;;;;;5007823;28;19922;-72
2023/01/27 13:34:39;;;;;;;;;;;;;;;;;;5006522;28;19926;-72
2023/01/27 13:37:05;;;;;;;;;;;;;;;;;;5026388;28;19936;-72
2023/01/27 13:39:31;;;;;;;;;;;;;;;;;;4991883;28;19921;-73
2023/01/27 13:41:59;;;;;;;;;;;;;;;;;;5009946;28;20383;-73
2023/01/27 13:44:35;;;;;;;;;;;;;;;;;;;;;
2023/01/27 13:47:02;;;;;;;;;;;;;;;;;;5010513;28;20020;-74
2023/01/27 13:49:30;;;;;;;;;;;;;;;;;;4987446;28;19926;-73
2023/01/27 13:52:09;;;;;;;;;;;;;;;;;;5013713;28;20209;-73
2023/01/27 13:54:52;;;;;;;;;;;;;;;;;;;;;
2023/01/27 13:57:23;;;;;;;;;;;;;;;;;;4999484;28;19921;-73
2023/01/27 13:59:52;;;;;;;;;;;;;;;;;;4992319;28;19925;-73
2023/01/27 14:02:18;;;;;;;;;;;;;;;;;;5007451;28;19930;-73
2023/01/27 14:04:57;;;;;;;;;;;;;;;;;;;;;
2023/01/27 14:07:24;;;;;;;;;;;;;;;;;;5021824;28;19929;-73
2023/01/27 14:09:50;;;;;;;;;;;;;;;;;;5002019;28;19930;-71
2023/01/27 14:12:34;;;;;;;;;;;;;;;;;;5008190;28;19924;-72
2023/01/27 14:15:00;;;;;;;;;;;;;;;;;;4996755;28;19932;-72
2023/01/27 14:17:29;;;;;;;;;;;;;;;;;;5016793;28;19929;-71
2023/01/27 14:20:00;;;;;;;;;;;;;;;;;;5010111;28;19921;-73
2023/01/27 14:22:26;;;;;;;;;;;;;;;;;;5007770;28;19921;-72
2023/01/27 14:24:52;;;;;;;;;;;;;;;;;;5007448;28;19995;-72
2023/01/27 14:27:19;;;;;;;;;;;;;;;;;;5007155;28;19928;-70
2023/01/27 14:29:50;;;;;;;;;;;;;;;;;;5007240;28;19949;-72
2023/01/27 14:32:25;;;;;;;;;;;;;;;;;;5005788;28;19921;-72
2023/01/27 14:34:51;;;;;;;;;;;;;;;;;;5011362;28;19969;-73
2023/01/27 14:37:22;;;;;;;;;;;;;;;;;;5009313;28;20028;-72
2023/01/27 14:39:54;;;;;;;;;;;;;;;;;;5010995;28;20016;-72
2023/01/27 14:42:29;;;;;;;;;;;;;;;;;;5007454;28;19977;-72
2023/01/27 14:44:55;;;;;;;;;;;;;;;;;;5006763;28;19955;-72
2023/01/27 14:47:24;;;;;;;;;;;;;;;;;;5014329;28;20012;-72
2023/01/27 14:49:50;;;;;;;;;;;;;;;;;;5005739;28;20373;-71
2023/01/27 14:52:19;;;;;;;;;;;;;;;;;;5006753;28;19933;-72
2023/01/27 14:54:48;;;;;;;;;;;;;;;;;;5039182;23;20023;-72
2023/01/27 14:57:22;;;;;;;;;;;;;;;;;;5029778;28;19929;-72
2023/01/27 14:59:57;;;;;;;;;;;;;;;;;;5046452;28;19990;-72
2023/01/27 15:02:28;;;;;;;;;;;;;;;;;;5045695;28;20059;-71
2023/01/27 15:04:57;;;;;;;;;;;;;;;;;;5028760;28;19975;-72
2023/01/27 15:07:34;;;;;;;;;;;;;;;;;;;;;
2023/01/27 15:10:03;;;;;;;;;;;;;;;;;;5046561;28;19925;-72
2023/01/27 15:12:38;;;;;;;;;;;;;;;;;;5047395;28;19931;-73
2023/01/27 15:15:07;;;;;;;;;;;;;;;;;;5045442;28;19968;-72
2023/01/27 15:17:36;;;;;;;;;;;;;;;;;;5028923;28;19931;-72
2023/01/27 15:20:05;;;;;;;;;;;;;;;;;;5046096;28;19921;-72
2023/01/27 15:22:31;;;;;;;;;;;;;;;;;;5026696;28;20373;-72
2023/01/27 15:24:57;;;;;;;;;;;;;;;;;;5060600;22;19936;-72
2023/01/27 15:27:26;;;;;;;;;;;;;;;;;;5047271;28;20042;-73
2023/01/27 15:30:05;;;;;;;;;;;;;;;;;;5033399;28;19925;-73
2023/01/27 15:32:38;;;;;;;;;;;;;;;;;;5026336;28;20426;-73
2023/01/27 15:35:04;;;;;;;;;;;;;;;;;;5044341;28;19970;-71
2023/01/27 15:37:30;;;;;;;;;;;;;;;;;;5071321;28;19971;-72
2023/01/27 15:40:02;;;;;;;;;;;;;;;;;;5059932;28;19964;-72
2023/01/27 15:42:32;;;;;;;;;;;;;;;;;;5059302;28;19928;-72
2023/01/27 15:45:01;;;;;;;;;;;;;;;;;;5044784;28;19925;-74
2023/01/27 15:47:29;;;;;;;;;;;;;;;;;;5059467;28;19964;-72
2023/01/27 15:49:55;;;;;;;;;;;;;;;;;;5061387;28;20302;-71
2023/01/27 15:52:33;;;;;;;;;;;;;;;;;;5062138;28;19916;-71
2023/01/27 15:55:00;;;;;;;;;;;;;;;;;;5045838;28;20366;-71
2023/01/27 15:57:29;;;;;;;;;;;;;;;;;;5070612;28;19931;-72
2023/01/27 15:59:57;;;;;;;;;;;;;;;;;;5069708;28;19937;-72
2023/01/27 16:02:29;;;;;;;;;;;;;;;;;;5057106;28;19962;-72
2023/01/27 16:05:10;;;;;;;;;;;;;;;;;;5058920;28;20002;-72
2023/01/27 16:07:46;;;;;;;;;;;;;;;;;;5073538;28;20037;-72
2023/01/27 16:10:12;;;;;;;;;;;;;;;;;;5049916;28;19923;-72
2023/01/27 16:12:43;;;;;;;;;;;;;;;;;;5036507;28;20432;-72
2023/01/27 16:15:12;;;;;;;;;;;;;;;;;;5040044;28;19924;-72
2023/01/27 16:17:38;;;;;;;;;;;;;;;;;;5058284;28;19920;-72
2023/01/27 16:20:04;;;;;;;;;;;;;;;;;;5036751;28;19979;-72
2023/01/27 16:22:38;;;;;;;;;;;;;;;;;;5035835;28;19970;-71
2023/01/27 16:25:25;;;;;;;;;;;;;;;;;;5036761;28;19928;-71
2023/01/27 16:27:53;;;;;;;;;;;;;;;;;;5053085;28;19928;-71
2023/01/27 16:30:19;;;;;;;;;;;;;;;;;;5036102;28;19916;-72
2023/01/27 16:33:15;;;;;;;;;;;;;;;;;;5050144;28;20399;-72
2023/01/27 16:35:44;;;;;;;;;;;;;;;;;;5056814;28;20381;-72
2023/01/27 16:41:11;;;;;;;;;;;;;;;;;;5008484;28;20007;-72
2023/01/27 16:43:42;;;;;;;;;;;;;;;;;;5050883;28;19917;-71
2023/01/27 16:46:11;;;;;;;;;;;;;;;;;;5062126;28;19920;-71
2023/01/27 16:48:40;;;;;;;;;;;4.50;99.90;;;;;;5053696;28;20017;-70
2023/01/27 16:51:09;;;;;;;;;;;;;;;;;;5035459;28;20333;-70
2023/01/27 16:53:44;;;;;;;;;;;4.40;99.90;;;;;;5065539;28;20388;-70
2023/01/27 16:56:13;;;;;;;;;;;;;;;;;;5039503;28;19916;-71
2023/01/27 16:58:41;;;;;;;;;;;4.50;99.90;;;;;;5050970;28;19942;-71
2023/01/27 17:01:22;;;;;;;;;;;4.40;99.90;;;;;;5072547;28;19962;-71
2023/01/27 17:03:58;;;;;;;;;;;4.30;99.90;;;;;;5051346;28;19916;-71
2023/01/27 17:06:27;;;;;;;;;;;;;;;;;;5057895;28;19921;-70
2023/01/27 17:08:55;;;;;;;;;;;4.30;99.90;;;;;;5043514;28;19920;-70
2023/01/27 17:11:36;;;;;;;;;;;4.30;99.90;;;;;;5050812;28;19917;-70
2023/01/27 17:14:15;;;;;;;;;;;4.20;99.90;;;;;;5050221;28;20277;-71
2023/01/27 17:16:47;;;;;;;;;;;4.40;99.90;;;;;;5066413;28;19971;-71
2023/01/27 17:19:19;;;;;;;;;;;4.40;99.90;;;;;;5049562;28;20479;-71
2023/01/27 17:22:09;;;;;;;;;;;4.30;99.90;;;;;;5069882;28;19916;-71